sensor_id;sensor_type;location;lat;lon;timestamp;pressure;altitude;pressure_sealevel;temperature;humidity
18509;BME280;9383;50.928;12.116;2023-04-16T00:00:22;98603.41;;;7.86;100.00
18509;BME280;9383;50.928;12.116;2023-04-16T00:02:50;98601.69;;;7.85;100.00
18509;BME280;9383;50.928;12.116;2023-04-16T00:05:17;98604.41;;;7.84;100.00
18509;BME280;9383;50.928;12.116;2023-04-16T00:07:44;98599.13;;;7.84;100.00
18509;BME280;9383;50.928;12.116;2023-04-16T00:10:11;98602.63;;;7.83;100.00
18509;BME280;9383;50.928;12.116;2023-04-16T00:12:38;98597.41;;;7.81;100.00
18509;BME280;9383;50.928;12.116;2023-04-16T00:15:05;98602.69;;;7.81;100.00
18509;BME280;9383;50.928;12.116;2023-04-16T00:17:31;98596.59;;;7.79;100.00
18509;BME280;9383;50.928;12.116;2023-04-16T00:19:58;98593.91;;;7.81;100.00
18509;BME280;9383;50.928;12.116;2023-04-16T00:22:24;98586.09;;;7.78;100.00
18509;BME280;9383;50.928;12.116;2023-04-16T00:24:51;98594.88;;;7.78;100.00
18509;BME280;9383;50.928;12.116;2023-04-16T00:27:18;98587.00;;;7.77;100.00
18509;BME280;9383;50.928;12.116;2023-04-16T00:29:45;98535.22;;;7.42;100.00
18509;BME280;9383;50.928;12.116;2023-04-16T00:32:12;98600.22;;;7.75;100.00
18509;BME280;9383;50.928;12.116;2023-04-16T00:34:38;98595.84;;;7.74;100.00
18509;BME280;9383;50.928;12.116;2023-04-16T00:37:05;98589.75;;;7.72;100.00
18509;BME280;9383;50.928;12.116;2023-04-16T00:39:31;98597.69;;;7.72;100.00
18509;BME280;9383;50.928;12.116;2023-04-16T00:41:58;98600.34;;;7.70;100.00
18509;BME280;9383;50.928;12.116;2023-04-16T00:44:25;98599.50;;;7.70;100.00
18509;BME280;9383;50.928;12.116;2023-04-16T00:46:51;98609.19;;;7.69;100.00
18509;BME280;9383;50.928;12.116;2023-04-16T00:49:18;98607.44;;;7.68;100.00
18509;BME280;9383;50.928;12.116;2023-04-16T00:51:45;98604.81;;;7.68;100.00
18509;BME280;9383;50.928;12.116;2023-04-16T00:54:11;98603.09;;;7.67;100.00
18509;BME280;9383;50.928;12.116;2023-04-16T00:56:38;98605.72;;;7.67;100.00
18509;BME280;9383;50.928;12.116;2023-04-16T00:59:05;98608.34;;;7.67;100.00
18509;BME280;9383;50.928;12.116;2023-04-16T01:01:31;98611.91;;;7.66;100.00
18509;BME280;9383;50.928;12.116;2023-04-16T01:03:57;98614.50;;;7.68;100.00
18509;BME280;9383;50.928;12.116;2023-04-16T01:06:24;98619.78;;;7.68;100.00
18509;BME280;9383;50.928;12.116;2023-04-16T01:08:52;98619.78;;;7.68;100.00
18509;BME280;9383;50.928;12.116;2023-04-16T01:11:18;98621.53;;;7.69;100.00
18509;BME280;9383;50.928;12.116;2023-04-16T01:13:45;98612.69;;;7.70;100.00
18509;BME280;9383;50.928;12.116;2023-04-16T01:16:12;98619.69;;;7.71;100.00
18509;BME280;9383;50.928;12.116;2023-04-16T01:18:38;98621.44;;;7.72;100.00
18509;BME280;9383;50.928;12.116;2023-04-16T01:21:05;98614.41;;;7.71;100.00
18509;BME280;9383;50.928;12.116;2023-04-16T01:23:32;98624.94;;;7.72;100.00
18509;BME280;9383;50.928;12.116;2023-04-16T01:25:59;98628.44;;;7.73;100.00
18509;BME280;9383;50.928;12.116;2023-04-16T01:28:25;98619.66;;;7.72;100.00
18509;BME280;9383;50.928;12.116;2023-04-16T01:30:52;98624.03;;;7.73;100.00
18509;BME280;9383;50.928;12.116;2023-04-16T01:33:21;98624.03;;;7.73;100.00
18509;BME280;9383;50.928;12.116;2023-04-16T01:35:48;98630.16;;;7.74;100.00
18509;BME280;9383;50.928;12.116;2023-04-16T01:38:15;98626.59;;;7.75;100.00
18509;BME280;9383;50.928;12.116;2023-04-16T01:40:41;98627.47;;;7.76;100.00
18509;BME280;9383;50.928;12.116;2023-04-16T01:43:08;98627.47;;;7.76;100.00
18509;BME280;9383;50.928;12.116;2023-04-16T01:45:37;98631.03;;;7.74;100.00
18509;BME280;9383;50.928;12.116;2023-04-16T01:48:04;98630.97;;;7.76;100.00
18509;BME280;9383;50.928;12.116;2023-04-16T01:50:31;98621.31;;;7.75;100.00
18509;BME280;9383;50.928;12.116;2023-04-16T01:52:58;98622.22;;;7.76;100.00
18509;BME280;9383;50.928;12.116;2023-04-16T01:55:24;98625.69;;;7.76;100.00
18509;BME280;9383;50.928;12.116;2023-04-16T01:57:52;98626.59;;;7.75;100.00
18509;BME280;9383;50.928;12.116;2023-04-16T02:00:19;98625.75;;;7.74;100.00
18509;BME280;9383;50.928;12.116;2023-04-16T02:02:46;98622.22;;;7.76;100.00
18509;BME280;9383;50.928;12.116;2023-04-16T02:05:14;98632.75;;;7.76;100.00
18509;BME280;9383;50.928;12.116;2023-04-16T02:07:42;98631.03;;;7.74;100.00
18509;BME280;9383;50.928;12.116;2023-04-16T02:10:10;98636.31;;;7.74;100.00
18509;BME280;9383;50.928;12.116;2023-04-16T02:12:36;98639.81;;;7.75;100.00
18509;BME280;9383;50.928;12.116;2023-04-16T02:15:03;98636.34;;;7.73;100.00
18509;BME280;9383;50.928;12.116;2023-04-16T02:17:30;98645.13;;;7.73;100.00
18509;BME280;9383;50.928;12.116;2023-04-16T02:19:56;98641.63;;;7.73;100.00
18509;BME280;9383;50.928;12.116;2023-04-16T02:22:23;98645.19;;;7.70;100.00
18509;BME280;9383;50.928;12.116;2023-04-16T02:24:49;98647.03;;;7.68;100.00
18509;BME280;9383;50.928;12.116;2023-04-16T02:27:16;98647.03;;;7.68;100.00
18509;BME280;9383;50.928;12.116;2023-04-16T02:29:42;98640.91;;;7.68;100.00
18509;BME280;9383;50.928;12.116;2023-04-16T02:32:09;98639.16;;;7.67;100.00
18509;BME280;9383;50.928;12.116;2023-04-16T02:34:36;98641.81;;;7.67;100.00
18509;BME280;9383;50.928;12.116;2023-04-16T02:37:05;98644.47;;;7.65;100.00
18509;BME280;9383;50.928;12.116;2023-04-16T02:39:32;98650.63;;;7.66;100.00
18509;BME280;9383;50.928;12.116;2023-04-16T02:41:59;98650.63;;;7.66;100.00
18509;BME280;9383;50.928;12.116;2023-04-16T02:44:26;98656.75;;;7.66;100.00
18509;BME280;9383;50.928;12.116;2023-04-16T02:46:53;98658.59;;;7.64;100.00
18509;BME280;9383;50.928;12.116;2023-04-16T02:49:19;98665.59;;;7.65;100.00
18509;BME280;9383;50.928;12.116;2023-04-16T02:51:46;98667.34;;;7.65;100.00
18509;BME280;9383;50.928;12.116;2023-04-16T02:54:12;98666.50;;;7.64;100.00
18509;BME280;9383;50.928;12.116;2023-04-16T02:56:38;98664.78;;;7.63;100.00
18509;BME280;9383;50.928;12.116;2023-04-16T02:59:05;98666.50;;;7.64;100.00
18509;BME280;9383;50.928;12.116;2023-04-16T03:01:32;98667.41;;;7.63;100.00
18509;BME280;9383;50.928;12.116;2023-04-16T03:03:58;98673.53;;;7.64;100.00
18509;BME280;9383;50.928;12.116;2023-04-16T03:06:25;98666.59;;;7.61;100.00
18509;BME280;9383;50.928;12.116;2023-04-16T03:08:52;98673.63;;;7.60;100.00
18509;BME280;9383;50.928;12.116;2023-04-16T03:11:18;98670.13;;;7.60;100.00
18509;BME280;9383;50.928;12.116;2023-04-16T03:13:45;98672.78;;;7.60;100.00
18509;BME280;9383;50.928;12.116;2023-04-16T03:16:12;98673.63;;;7.60;100.00
18509;BME280;9383;50.928;12.116;2023-04-16T03:18:44;98678.03;;;7.60;100.00
18509;BME280;9383;50.928;12.116;2023-04-16T03:21:11;98671.88;;;7.59;100.00
18509;BME280;9383;50.928;12.116;2023-04-16T03:23:37;98669.25;;;7.59;100.00
18509;BME280;9383;50.928;12.116;2023-04-16T03:26:05;98679.81;;;7.59;100.00
18509;BME280;9383;50.928;12.116;2023-04-16T03:28:31;98680.69;;;7.60;100.00
18509;BME280;9383;50.928;12.116;2023-04-16T03:30:58;98684.22;;;7.59;100.00
18509;BME280;9383;50.928;12.116;2023-04-16T03:33:24;98683.34;;;7.58;100.00
18509;BME280;9383;50.928;12.116;2023-04-16T03:35:55;98683.34;;;7.58;100.00
18509;BME280;9383;50.928;12.116;2023-04-16T03:38:24;98691.28;;;7.57;100.00
18509;BME280;9383;50.928;12.116;2023-04-16T03:40:52;98692.22;;;7.56;100.00
18509;BME280;9383;50.928;12.116;2023-04-16T03:43:18;98697.44;;;7.57;100.00
18509;BME280;9383;50.928;12.116;2023-04-16T03:45:45;98694.84;;;7.56;100.00
18509;BME280;9383;50.928;12.116;2023-04-16T03:48:12;98696.63;;;7.55;100.00
18509;BME280;9383;50.928;12.116;2023-04-16T03:50:38;98694.03;;;7.54;100.00
18509;BME280;9383;50.928;12.116;2023-04-16T03:53:05;98699.28;;;7.55;100.00
18509;BME280;9383;50.928;12.116;2023-04-16T03:55:31;98697.53;;;7.54;100.00
18509;BME280;9383;50.928;12.116;2023-04-16T03:57:58;98710.66;;;7.56;100.00
18509;BME280;9383;50.928;12.116;2023-04-16T04:00:29;98705.44;;;7.54;100.00
18509;BME280;9383;50.928;12.116;2023-04-16T04:02:56;98708.94;;;7.55;100.00
18509;BME280;9383;50.928;12.116;2023-04-16T04:05:23;98720.38;;;7.55;100.00
18509;BME280;9383;50.928;12.116;2023-04-16T04:07:49;98714.22;;;7.55;100.00
18509;BME280;9383;50.928;12.116;2023-04-16T04:10:16;98715.94;;;7.56;100.00
18509;BME280;9383;50.928;12.116;2023-04-16T04:12:42;98722.94;;;7.57;100.00
18509;BME280;9383;50.928;12.116;2023-04-16T04:15:09;98720.31;;;7.57;100.00
18509;BME280;9383;50.928;12.116;2023-04-16T04:17:36;98724.69;;;7.58;100.00
18509;BME280;9383;50.928;12.116;2023-04-16T04:20:03;98727.31;;;7.58;100.00
18509;BME280;9383;50.928;12.116;2023-04-16T04:22:29;98722.03;;;7.58;100.00
18509;BME280;9383;50.928;12.116;2023-04-16T04:24:56;98729.94;;;7.59;100.00
18509;BME280;9383;50.928;12.116;2023-04-16T04:27:22;98732.56;;;7.59;100.00
18509;BME280;9383;50.928;12.116;2023-04-16T04:29:49;98727.28;;;7.59;100.00
18509;BME280;9383;50.928;12.116;2023-04-16T04:32:15;98736.09;;;7.60;100.00
18509;BME280;9383;50.928;12.116;2023-04-16T04:34:42;98736.09;;;7.60;100.00
18509;BME280;9383;50.928;12.116;2023-04-16T04:37:08;98743.09;;;7.61;100.00
18509;BME280;9383;50.928;12.116;2023-04-16T04:39:35;98745.72;;;7.61;100.00
18509;BME280;9383;50.928;12.116;2023-04-16T04:42:01;98747.47;;;7.62;100.00
18509;BME280;9383;50.928;12.116;2023-04-16T04:44:28;98748.31;;;7.63;100.00
18509;BME280;9383;50.928;12.116;2023-04-16T04:46:54;98750.03;;;7.64;100.00
18509;BME280;9383;50.928;12.116;2023-04-16T04:49:21;98677.34;;;7.18;100.00
18509;BME280;9383;50.928;12.116;2023-04-16T04:51:47;98754.47;;;7.63;100.00
18509;BME280;9383;50.928;12.116;2023-04-16T04:54:14;98756.19;;;7.64;100.00
18509;BME280;9383;50.928;12.116;2023-04-16T04:56:41;98757.03;;;7.65;100.00
18509;BME280;9383;50.928;12.116;2023-04-16T04:59:10;98763.19;;;7.65;100.00
18509;BME280;9383;50.928;12.116;2023-04-16T05:01:37;98755.28;;;7.65;100.00
18509;BME280;9383;50.928;12.116;2023-04-16T05:04:04;98754.38;;;7.66;100.00
18509;BME280;9383;50.928;12.116;2023-04-16T05:06:30;98716.34;;;7.40;100.00
18509;BME280;9383;50.928;12.116;2023-04-16T05:08:57;98762.28;;;7.66;100.00
18509;BME280;9383;50.928;12.116;2023-04-16T05:11:23;98754.50;;;7.62;100.00
18509;BME280;9383;50.928;12.116;2023-04-16T05:13:50;98764.91;;;7.68;100.00
18509;BME280;9383;50.928;12.116;2023-04-16T05:16:16;98764.00;;;7.69;100.00
18509;BME280;9383;50.928;12.116;2023-04-16T05:18:43;98762.19;;;7.69;100.00
18509;BME280;9383;50.928;12.116;2023-04-16T05:21:09;98764.84;;;7.69;100.00
18509;BME280;9383;50.928;12.116;2023-04-16T05:23:36;98775.38;;;7.71;100.00
18509;BME280;9383;50.928;12.116;2023-04-16T05:26:02;98772.72;;;7.71;100.00
18509;BME280;9383;50.928;12.116;2023-04-16T05:28:29;98778.88;;;7.71;100.00
18509;BME280;9383;50.928;12.116;2023-04-16T05:30:56;98783.25;;;7.72;100.00
18509;BME280;9383;50.928;12.116;2023-04-16T05:33:22;98783.19;;;7.74;100.00
18509;BME280;9383;50.928;12.116;2023-04-16T05:35:49;98786.72;;;7.74;100.00
18509;BME280;9383;50.928;12.116;2023-04-16T05:38:16;98791.09;;;7.76;100.00
18509;BME280;9383;50.928;12.116;2023-04-16T05:40:42;98733.00;;;7.42;100.00
18509;BME280;9383;50.928;12.116;2023-04-16T05:43:09;98790.16;;;7.78;100.00
18509;BME280;9383;50.928;12.116;2023-04-16T05:45:35;98789.19;;;7.81;100.00
18509;BME280;9383;50.928;12.116;2023-04-16T05:48:07;98798.81;;;7.82;100.00
18509;BME280;9383;50.928;12.116;2023-04-16T05:50:35;98797.06;;;7.82;100.00
18509;BME280;9383;50.928;12.116;2023-04-16T05:53:03;98797.03;;;7.84;100.00
18509;BME280;9383;50.928;12.116;2023-04-16T05:55:31;98800.50;;;7.86;100.00
18509;BME280;9383;50.928;12.116;2023-04-16T05:57:58;98810.16;;;7.87;100.00
18509;BME280;9383;50.928;12.116;2023-04-16T06:00:24;98810.09;;;7.88;100.00
18509;BME280;9383;50.928;12.116;2023-04-16T06:02:51;98811.78;;;7.91;100.00
18509;BME280;9383;50.928;12.116;2023-04-16T06:05:17;98814.41;;;7.93;100.00
18509;BME280;9383;50.928;12.116;2023-04-16T06:07:44;98816.97;;;7.94;100.00
18509;BME280;9383;50.928;12.116;2023-04-16T06:10:11;98820.47;;;7.96;100.00
18509;BME280;9383;50.928;12.116;2023-04-16T06:12:37;98817.78;;;7.98;100.00
18509;BME280;9383;50.928;12.116;2023-04-16T06:15:04;98823.03;;;7.99;100.00
18509;BME280;9383;50.928;12.116;2023-04-16T06:17:31;98826.47;;;8.01;100.00
18509;BME280;9383;50.928;12.116;2023-04-16T06:19:58;98816.75;;;8.03;100.00
18509;BME280;9383;50.928;12.116;2023-04-16T06:22:25;98822.84;;;8.06;100.00
18509;BME280;9383;50.928;12.116;2023-04-16T06:24:52;98825.38;;;8.09;100.00
18509;BME280;9383;50.928;12.116;2023-04-16T06:27:18;98828.88;;;8.11;100.00
18509;BME280;9383;50.928;12.116;2023-04-16T06:29:45;98833.19;;;8.13;100.00
18509;BME280;9383;50.928;12.116;2023-04-16T06:32:11;98828.78;;;8.14;100.00
18509;BME280;9383;50.928;12.116;2023-04-16T06:34:38;98829.59;;;8.18;100.00
18509;BME280;9383;50.928;12.116;2023-04-16T06:37:05;98829.50;;;8.21;100.00
18509;BME280;9383;50.928;12.116;2023-04-16T06:39:32;98831.19;;;8.23;100.00
18509;BME280;9383;50.928;12.116;2023-04-16T06:41:59;98833.66;;;8.29;100.00
18509;BME280;9383;50.928;12.116;2023-04-16T06:44:26;98840.56;;;8.34;100.00
18509;BME280;9383;50.928;12.116;2023-04-16T06:46:53;98843.09;;;8.38;100.00
18509;BME280;9383;50.928;12.116;2023-04-16T06:49:20;98840.31;;;8.43;100.00
18509;BME280;9383;50.928;12.116;2023-04-16T06:51:46;98842.00;;;8.47;100.00
18509;BME280;9383;50.928;12.116;2023-04-16T06:54:13;98844.50;;;8.52;100.00
18509;BME280;9383;50.928;12.116;2023-04-16T06:56:40;98847.09;;;8.55;100.00
18509;BME280;9383;50.928;12.116;2023-04-16T06:59:18;98854.91;;;8.60;100.00
18509;BME280;9383;50.928;12.116;2023-04-16T07:01:45;98853.06;;;8.62;100.00
18509;BME280;9383;50.928;12.116;2023-04-16T07:04:12;98849.44;;;8.64;100.00
18509;BME280;9383;50.928;12.116;2023-04-16T07:06:38;98854.66;;;8.67;100.00
18509;BME280;9383;50.928;12.116;2023-04-16T07:09:05;98857.22;;;8.70;100.00
18509;BME280;9383;50.928;12.116;2023-04-16T07:11:31;98860.66;;;8.74;100.00
18509;BME280;9383;50.928;12.116;2023-04-16T07:13:58;98858.75;;;8.78;100.00
18509;BME280;9383;50.928;12.116;2023-04-16T07:16:25;98861.22;;;8.84;100.00
18509;BME280;9383;50.928;12.116;2023-04-16T07:18:51;98855.81;;;8.89;100.00
18509;BME280;9383;50.928;12.116;2023-04-16T07:21:18;98867.09;;;8.94;100.00
18509;BME280;9383;50.928;12.116;2023-04-16T07:23:45;98867.88;;;8.97;100.00
18509;BME280;9383;50.928;12.116;2023-04-16T07:26:11;98873.97;;;9.01;100.00
18509;BME280;9383;50.928;12.116;2023-04-16T07:28:38;98875.59;;;9.05;100.00
18509;BME280;9383;50.928;12.116;2023-04-16T07:31:04;98869.34;;;9.08;100.00
18509;BME280;9383;50.928;12.116;2023-04-16T07:33:31;98872.81;;;9.10;100.00
18509;BME280;9383;50.928;12.116;2023-04-16T07:35:58;98878.00;;;9.13;100.00
18509;BME280;9383;50.928;12.116;2023-04-16T07:38:24;98883.19;;;9.16;100.00
18509;BME280;9383;50.928;12.116;2023-04-16T07:40:51;98884.06;;;9.17;100.00
18509;BME280;9383;50.928;12.116;2023-04-16T07:43:17;98883.16;;;9.18;100.00
18509;BME280;9383;50.928;12.116;2023-04-16T07:45:44;98885.69;;;9.21;100.00
18509;BME280;9383;50.928;12.116;2023-04-16T07:48:10;98890.91;;;9.24;100.00
18509;BME280;9383;50.928;12.116;2023-04-16T07:50:37;98888.19;;;9.27;100.00
18509;BME280;9383;50.928;12.116;2023-04-16T07:53:04;98899.47;;;9.32;100.00
18509;BME280;9383;50.928;12.116;2023-04-16T07:55:32;98895.88;;;9.35;100.00
18509;BME280;9383;50.928;12.116;2023-04-16T07:57:59;98898.38;;;9.39;100.00
18509;BME280;9383;50.928;12.116;2023-04-16T08:00:25;98900.00;;;9.43;100.00
18509;BME280;9383;50.928;12.116;2023-04-16T08:02:52;98895.50;;;9.47;100.00
18509;BME280;9383;50.928;12.116;2023-04-16T08:05:19;98827.19;;;9.03;100.00
18509;BME280;9383;50.928;12.116;2023-04-16T08:07:46;98901.47;;;9.54;100.00
18509;BME280;9383;50.928;12.116;2023-04-16T08:10:12;98908.44;;;9.56;100.00
18509;BME280;9383;50.928;12.116;2023-04-16T08:12:39;98909.19;;;9.60;100.00
18509;BME280;9383;50.928;12.116;2023-04-16T08:15:06;98907.38;;;9.62;100.00
18509;BME280;9383;50.928;12.116;2023-04-16T08:17:33;98913.59;;;9.61;100.00
18509;BME280;9383;50.928;12.116;2023-04-16T08:20:00;98920.69;;;9.59;100.00
18509;BME280;9383;50.928;12.116;2023-04-16T08:22:27;98929.47;;;9.61;100.00
18509;BME280;9383;50.928;12.116;2023-04-16T08:24:54;98925.03;;;9.62;100.00
18509;BME280;9383;50.928;12.116;2023-04-16T08:27:21;98934.59;;;9.66;100.00
18509;BME280;9383;50.928;12.116;2023-04-16T08:29:48;98929.22;;;9.69;100.00
18509;BME280;9383;50.928;12.116;2023-04-16T08:32:15;98943.19;;;9.74;100.00
18509;BME280;9383;50.928;12.116;2023-04-16T08:34:41;98946.53;;;9.79;100.00
18509;BME280;9383;50.928;12.116;2023-04-16T08:37:08;98946.47;;;9.82;100.00
18509;BME280;9383;50.928;12.116;2023-04-16T08:39:37;98943.66;;;9.87;100.00
18509;BME280;9383;50.928;12.116;2023-04-16T08:42:31;98949.72;;;9.91;100.00
18509;BME280;9383;50.928;12.116;2023-04-16T08:45:07;98951.38;;;9.95;100.00
18509;BME280;9383;50.928;12.116;2023-04-16T08:47:49;98955.59;;;10.01;100.00
18509;BME280;9383;50.928;12.116;2023-04-16T08:50:21;98963.41;;;10.05;100.00
18509;BME280;9383;50.928;12.116;2023-04-16T08:53:05;98961.41;;;10.12;100.00
18509;BME280;9383;50.928;12.116;2023-04-16T08:55:37;98960.34;;;10.18;100.00
18509;BME280;9383;50.928;12.116;2023-04-16T08:58:17;98962.72;;;10.25;100.00
18509;BME280;9383;50.928;12.116;2023-04-16T09:01:05;98970.34;;;10.35;100.00
18509;BME280;9383;50.928;12.116;2023-04-16T09:03:34;98966.63;;;10.42;100.00
18509;BME280;9383;50.928;12.116;2023-04-16T09:06:01;98959.28;;;10.50;100.00
18509;BME280;9383;50.928;12.116;2023-04-16T09:08:30;98967.81;;;10.59;100.00
18509;BME280;9383;50.928;12.116;2023-04-16T09:10:57;98964.06;;;10.66;100.00
18509;BME280;9383;50.928;12.116;2023-04-16T09:13:25;98970.03;;;10.71;100.00
18509;BME280;9383;50.928;12.116;2023-04-16T09:15:54;98968.97;;;10.77;100.00
18509;BME280;9383;50.928;12.116;2023-04-16T09:18:25;98974.22;;;10.78;100.00
18509;BME280;9383;50.928;12.116;2023-04-16T09:20:53;98973.03;;;10.87;100.00
18509;BME280;9383;50.928;12.116;2023-04-16T09:23:21;98981.63;;;10.94;100.00
18509;BME280;9383;50.928;12.116;2023-04-16T09:25:48;98981.34;;;11.02;100.00
18509;BME280;9383;50.928;12.116;2023-04-16T09:28:38;98982.00;;;11.08;100.00
18509;BME280;9383;50.928;12.116;2023-04-16T09:31:15;98985.41;;;11.12;100.00
18509;BME280;9383;50.928;12.116;2023-04-16T09:33:43;98990.66;;;11.14;100.00
18509;BME280;9383;50.928;12.116;2023-04-16T09:36:26;98995.84;;;11.17;100.00
18509;BME280;9383;50.928;12.116;2023-04-16T09:38:54;98994.88;;;11.19;100.00
18509;BME280;9383;50.928;12.116;2023-04-16T09:41:25;98994.75;;;11.22;100.00
18509;BME280;9383;50.928;12.116;2023-04-16T09:43:56;98999.16;;;11.23;100.00
18509;BME280;9383;50.928;12.116;2023-04-16T09:46:36;98993.88;;;11.22;100.00
18509;BME280;9383;50.928;12.116;2023-04-16T09:49:16;98996.53;;;11.22;100.00
18509;BME280;9383;50.928;12.116;2023-04-16T09:51:51;99001.84;;;11.22;100.00
18509;BME280;9383;50.928;12.116;2023-04-16T09:54:21;99001.00;;;11.21;100.00
18509;BME280;9383;50.928;12.116;2023-04-16T09:56:47;99001.97;;;11.19;100.00
18509;BME280;9383;50.928;12.116;2023-04-16T09:59:21;99007.38;;;11.16;100.00
18509;BME280;9383;50.928;12.116;2023-04-16T10:01:48;99008.31;;;11.15;100.00
18509;BME280;9383;50.928;12.116;2023-04-16T10:04:16;99006.59;;;11.14;100.00
18509;BME280;9383;50.928;12.116;2023-04-16T10:06:42;99008.41;;;11.11;100.00
18509;BME280;9383;50.928;12.116;2023-04-16T10:09:09;99013.97;;;11.04;100.00
18509;BME280;9383;50.928;12.116;2023-04-16T10:11:36;99019.56;;;10.96;100.00
18509;BME280;9383;50.928;12.116;2023-04-16T10:14:03;99024.09;;;10.92;100.00
18509;BME280;9383;50.928;12.116;2023-04-16T10:16:30;99024.44;;;10.83;100.00
18509;BME280;9383;50.928;12.116;2023-04-16T10:18:58;99021.28;;;10.72;100.00
18509;BME280;9383;50.928;12.116;2023-04-16T10:21:44;99028.09;;;10.53;100.00
18509;BME280;9383;50.928;12.116;2023-04-16T10:24:11;99030.38;;;10.36;100.00
18509;BME280;9383;50.928;12.116;2023-04-16T10:26:39;99043.13;;;10.24;100.00
18509;BME280;9383;50.928;12.116;2023-04-16T10:29:07;99038.91;;;10.19;100.00
18509;BME280;9383;50.928;12.116;2023-04-16T10:31:35;99040.66;;;10.18;100.00
18509;BME280;9383;50.928;12.116;2023-04-16T10:34:03;99037.16;;;10.18;100.00
18509;BME280;9383;50.928;12.116;2023-04-16T10:36:30;99039.97;;;10.13;100.00
18509;BME280;9383;50.928;12.116;2023-04-16T10:39:00;99041.09;;;10.04;100.00
18509;BME280;9383;50.928;12.116;2023-04-16T10:41:26;99043.81;;;10.03;100.00
18509;BME280;9383;50.928;12.116;2023-04-16T10:44:03;99042.84;;;10.05;100.00
18509;BME280;9383;50.928;12.116;2023-04-16T10:46:33;99046.44;;;10.03;100.00
18509;BME280;9383;50.928;12.116;2023-04-16T10:49:12;99044.06;;;9.93;100.00
18509;BME280;9383;50.928;12.116;2023-04-16T10:51:39;99047.91;;;9.83;100.00
18509;BME280;9383;50.928;12.116;2023-04-16T10:56:36;99046.75;;;9.63;100.00
18509;BME280;9383;50.928;12.116;2023-04-16T10:59:13;99047.91;;;9.54;100.00
18509;BME280;9383;50.928;12.116;2023-04-16T11:01:45;99044.50;;;9.49;100.00
18509;BME280;9383;50.928;12.116;2023-04-16T11:10:00;99042.19;;;9.37;100.00
18509;BME280;9383;50.928;12.116;2023-04-16T11:12:39;99054.63;;;9.33;100.00
18509;BME280;9383;50.928;12.116;2023-04-16T11:17:53;99050.38;;;9.27;100.00
18509;BME280;9383;50.928;12.116;2023-04-16T11:20:24;99049.47;;;9.28;100.00
18509;BME280;9383;50.928;12.116;2023-04-16T11:22:54;99054.91;;;9.24;100.00
18509;BME280;9383;50.928;12.116;2023-04-16T11:25:29;99053.19;;;9.23;100.00
18509;BME280;9383;50.928;12.116;2023-04-16T11:27:57;99054.94;;;9.22;100.00
18509;BME280;9383;50.928;12.116;2023-04-16T11:30:38;99061.25;;;9.18;100.00
18509;BME280;9383;50.928;12.116;2023-04-16T11:33:07;99068.38;;;9.14;100.00
18509;BME280;9383;50.928;12.116;2023-04-16T11:35:41;99057.91;;;9.11;100.00
18509;BME280;9383;50.928;12.116;2023-04-16T11:38:09;99069.31;;;9.13;100.00
18509;BME280;9383;50.928;12.116;2023-04-16T11:40:35;99075.50;;;9.12;100.00
18509;BME280;9383;50.928;12.116;2023-04-16T11:43:14;99066.75;;;9.10;100.00
18509;BME280;9383;50.928;12.116;2023-04-16T11:45:58;99073.00;;;9.06;100.00
18509;BME280;9383;50.928;12.116;2023-04-16T11:48:25;99080.16;;;9.03;100.00
18509;BME280;9383;50.928;12.116;2023-04-16T11:51:10;99077.56;;;9.01;100.00
18509;BME280;9383;50.928;12.116;2023-04-16T11:53:50;99077.47;;;9.04;100.00
18509;BME280;9383;50.928;12.116;2023-04-16T11:56:34;99087.06;;;9.08;100.00
18509;BME280;9383;50.928;12.116;2023-04-16T11:59:08;99086.22;;;9.06;100.00
18509;BME280;9383;50.928;12.116;2023-04-16T12:01:37;99085.44;;;9.03;100.00
18509;BME280;9383;50.928;12.116;2023-04-16T12:04:04;99089.97;;;8.97;100.00
18509;BME280;9383;50.928;12.116;2023-04-16T12:09:32;99089.25;;;8.92;100.00
18509;BME280;9383;50.928;12.116;2023-04-16T12:12:00;99094.47;;;8.94;100.00
18509;BME280;9383;50.928;12.116;2023-04-16T12:14:27;99085.63;;;8.95;100.00
18509;BME280;9383;50.928;12.116;2023-04-16T12:19:58;99091.72;;;8.98;100.00
18509;BME280;9383;50.928;12.116;2023-04-16T12:22:31;99099.69;;;8.97;100.00
18509;BME280;9383;50.928;12.116;2023-04-16T12:24:59;99094.41;;;8.97;100.00
18509;BME280;9383;50.928;12.116;2023-04-16T12:30:11;99090.78;;;9.01;100.00
18509;BME280;9383;50.928;12.116;2023-04-16T12:32:39;99097.72;;;9.05;100.00
18509;BME280;9383;50.928;12.116;2023-04-16T12:35:06;99095.88;;;9.07;100.00
18509;BME280;9383;50.928;12.116;2023-04-16T12:37:33;99093.31;;;9.06;100.00
18509;BME280;9383;50.928;12.116;2023-04-16T12:40:01;99098.63;;;9.04;100.00
18509;BME280;9383;50.928;12.116;2023-04-16T12:42:28;99092.44;;;9.05;100.00
18509;BME280;9383;50.928;12.116;2023-04-16T12:45:02;99095.88;;;9.07;100.00
18509;BME280;9383;50.928;12.116;2023-04-16T12:47:31;99098.41;;;9.12;100.00
18509;BME280;9383;50.928;12.116;2023-04-16T12:49:58;99100.13;;;9.14;100.00
18509;BME280;9383;50.928;12.116;2023-04-16T12:52:25;99094.75;;;9.18;100.00
18509;BME280;9383;50.928;12.116;2023-04-16T12:55:01;99091.28;;;9.15;100.00
18509;BME280;9383;50.928;12.116;2023-04-16T12:57:28;99104.59;;;9.12;100.00
18509;BME280;9383;50.928;12.116;2023-04-16T12:59:55;99101.03;;;9.13;100.00
18509;BME280;9383;50.928;12.116;2023-04-16T13:02:23;99101.84;;;9.15;100.00
18509;BME280;9383;50.928;12.116;2023-04-16T13:04:51;99106.97;;;9.22;100.00
18509;BME280;9383;50.928;12.116;2023-04-16T13:07:18;99106.94;;;9.23;100.00
18509;BME280;9383;50.928;12.116;2023-04-16T13:09:45;99106.97;;;9.22;100.00
18509;BME280;9383;50.928;12.116;2023-04-16T13:12:12;99108.88;;;9.17;100.00
18509;BME280;9383;50.928;12.116;2023-04-16T13:14:40;99109.00;;;9.12;100.00
18509;BME280;9383;50.928;12.116;2023-04-16T13:17:10;99114.41;;;9.07;100.00
18509;BME280;9383;50.928;12.116;2023-04-16T13:19:36;99109.94;;;9.09;100.00
18509;BME280;9383;50.928;12.116;2023-04-16T13:22:13;99117.69;;;9.17;100.00